Terminal Aerodrome Forecast
Issued by NWS

Home | Current Version | Previous Version | Graphics & Text | Print | Product List | Glossary On
Versions: 1 2 3 4 5 6 7 8 9 10 11 12 13 14 15
000
FTUS43 KICT 181700
TAFCNU
TAF
KCNU 181739Z 1818/1918 21006KT P6SM BKN200
      TEMPO 1907/1911 31015KT -SHRA SCT040=

USA.gov is the U.S. government's official web portal to all federal, state and local government web resources and services.